sensor_id;sensor_type;location;lat;lon;timestamp;temperature;humidity
33067;DHT22;19428;49.024;8.366;2023-07-31T00:02:01;18.20;93.80
33067;DHT22;19428;49.024;8.366;2023-07-31T00:04:26;18.20;94.30
33067;DHT22;19428;49.024;8.366;2023-07-31T00:06:52;18.10;95.40
33067;DHT22;19428;49.024;8.366;2023-07-31T00:09:18;18.10;95.20
33067;DHT22;19428;49.024;8.366;2023-07-31T00:11:43;18.10;95.70
33067;DHT22;19428;49.024;8.366;2023-07-31T00:14:09;18.00;97.10
33067;DHT22;19428;49.024;8.366;2023-07-31T00:16:35;18.00;97.20
33067;DHT22;19428;49.024;8.366;2023-07-31T00:19:00;18.00;97.70
33067;DHT22;19428;49.024;8.366;2023-07-31T00:21:26;17.80;99.90
33067;DHT22;19428;49.024;8.366;2023-07-31T00:23:52;17.80;99.90
33067;DHT22;19428;49.024;8.366;2023-07-31T00:26:17;17.80;99.90
33067;DHT22;19428;49.024;8.366;2023-07-31T00:28:43;17.80;99.90
33067;DHT22;19428;49.024;8.366;2023-07-31T00:31:09;17.70;99.90
33067;DHT22;19428;49.024;8.366;2023-07-31T00:33:35;17.70;99.90
33067;DHT22;19428;49.024;8.366;2023-07-31T00:36:01;17.70;99.90
33067;DHT22;19428;49.024;8.366;2023-07-31T00:38:26;17.70;99.90
33067;DHT22;19428;49.024;8.366;2023-07-31T00:40:52;17.70;99.90
33067;DHT22;19428;49.024;8.366;2023-07-31T00:43:17;17.70;99.90
33067;DHT22;19428;49.024;8.366;2023-07-31T00:45:44;17.70;99.90
33067;DHT22;19428;49.024;8.366;2023-07-31T00:48:10;17.60;99.90
33067;DHT22;19428;49.024;8.366;2023-07-31T00:50:35;17.60;99.90
33067;DHT22;19428;49.024;8.366;2023-07-31T00:53:01;17.60;99.90
33067;DHT22;19428;49.024;8.366;2023-07-31T00:55:27;17.50;99.90
33067;DHT22;19428;49.024;8.366;2023-07-31T00:57:53;17.50;99.90
33067;DHT22;19428;49.024;8.366;2023-07-31T01:00:21;17.50;99.90
33067;DHT22;19428;49.024;8.366;2023-07-31T01:02:50;17.50;99.90
33067;DHT22;19428;49.024;8.366;2023-07-31T01:05:23;17.50;99.90
33067;DHT22;19428;49.024;8.366;2023-07-31T01:08:05;17.50;99.90
33067;DHT22;19428;49.024;8.366;2023-07-31T01:10:41;17.40;99.90
33067;DHT22;19428;49.024;8.366;2023-07-31T01:13:10;17.40;99.90
33067;DHT22;19428;49.024;8.366;2023-07-31T01:15:36;17.40;99.90
33067;DHT22;19428;49.024;8.366;2023-07-31T01:18:02;17.40;99.90
33067;DHT22;19428;49.024;8.366;2023-07-31T01:20:29;17.30;99.90
33067;DHT22;19428;49.024;8.366;2023-07-31T01:28:25;17.20;99.90
33067;DHT22;19428;49.024;8.366;2023-07-31T01:30:55;17.20;99.90
33067;DHT22;19428;49.024;8.366;2023-07-31T01:33:23;17.20;99.90
33067;DHT22;19428;49.024;8.366;2023-07-31T01:35:49;17.10;99.90
33067;DHT22;19428;49.024;8.366;2023-07-31T01:38:15;17.10;99.90
33067;DHT22;19428;49.024;8.366;2023-07-31T01:40:51;17.10;99.90
33067;DHT22;19428;49.024;8.366;2023-07-31T01:43:16;17.00;99.90
33067;DHT22;19428;49.024;8.366;2023-07-31T01:45:42;17.00;99.90
33067;DHT22;19428;49.024;8.366;2023-07-31T01:48:08;17.00;99.90
33067;DHT22;19428;49.024;8.366;2023-07-31T01:50:33;17.00;99.90
33067;DHT22;19428;49.024;8.366;2023-07-31T01:52:59;17.00;99.90
33067;DHT22;19428;49.024;8.366;2023-07-31T01:55:24;17.00;99.90
33067;DHT22;19428;49.024;8.366;2023-07-31T01:57:50;17.00;99.90
33067;DHT22;19428;49.024;8.366;2023-07-31T02:00:15;17.10;99.90
33067;DHT22;19428;49.024;8.366;2023-07-31T02:02:41;17.10;99.90
33067;DHT22;19428;49.024;8.366;2023-07-31T02:05:07;17.10;99.90
33067;DHT22;19428;49.024;8.366;2023-07-31T02:07:32;17.10;99.90
33067;DHT22;19428;49.024;8.366;2023-07-31T02:09:58;17.00;99.90
33067;DHT22;19428;49.024;8.366;2023-07-31T02:12:23;17.00;99.90
33067;DHT22;19428;49.024;8.366;2023-07-31T02:14:49;17.00;99.90
33067;DHT22;19428;49.024;8.366;2023-07-31T02:17:14;17.00;99.90
33067;DHT22;19428;49.024;8.366;2023-07-31T02:19:40;16.90;99.90
33067;DHT22;19428;49.024;8.366;2023-07-31T02:22:06;17.00;99.90
33067;DHT22;19428;49.024;8.366;2023-07-31T02:24:31;16.90;99.90
33067;DHT22;19428;49.024;8.366;2023-07-31T02:26:57;16.90;99.90
33067;DHT22;19428;49.024;8.366;2023-07-31T02:29:22;16.90;99.90
33067;DHT22;19428;49.024;8.366;2023-07-31T02:31:48;16.90;99.90
33067;DHT22;19428;49.024;8.366;2023-07-31T02:34:14;16.90;99.90
33067;DHT22;19428;49.024;8.366;2023-07-31T02:36:39;16.90;99.90
33067;DHT22;19428;49.024;8.366;2023-07-31T02:39:05;16.90;99.90
33067;DHT22;19428;49.024;8.366;2023-07-31T02:41:30;16.90;99.90
33067;DHT22;19428;49.024;8.366;2023-07-31T02:43:56;16.80;99.90
33067;DHT22;19428;49.024;8.366;2023-07-31T02:46:22;16.80;99.90
33067;DHT22;19428;49.024;8.366;2023-07-31T02:48:50;16.80;99.90
33067;DHT22;19428;49.024;8.366;2023-07-31T02:51:15;16.80;99.90
33067;DHT22;19428;49.024;8.366;2023-07-31T02:53:41;16.80;99.90
33067;DHT22;19428;49.024;8.366;2023-07-31T02:56:06;16.80;99.90
33067;DHT22;19428;49.024;8.366;2023-07-31T02:58:32;16.80;99.90
33067;DHT22;19428;49.024;8.366;2023-07-31T03:00:58;16.80;99.90
33067;DHT22;19428;49.024;8.366;2023-07-31T03:03:24;16.80;99.90
33067;DHT22;19428;49.024;8.366;2023-07-31T03:05:49;16.80;99.90
33067;DHT22;19428;49.024;8.366;2023-07-31T03:08:15;16.80;99.90
33067;DHT22;19428;49.024;8.366;2023-07-31T03:10:41;16.80;99.90
33067;DHT22;19428;49.024;8.366;2023-07-31T03:13:06;16.80;99.90
33067;DHT22;19428;49.024;8.366;2023-07-31T03:15:32;16.80;99.90
33067;DHT22;19428;49.024;8.366;2023-07-31T03:17:58;16.90;99.90
33067;DHT22;19428;49.024;8.366;2023-07-31T03:20:23;16.80;99.90
33067;DHT22;19428;49.024;8.366;2023-07-31T03:22:49;16.80;99.90
33067;DHT22;19428;49.024;8.366;2023-07-31T03:25:14;16.80;99.90
33067;DHT22;19428;49.024;8.366;2023-07-31T03:27:40;16.80;99.90
33067;DHT22;19428;49.024;8.366;2023-07-31T03:30:08;16.90;99.90
33067;DHT22;19428;49.024;8.366;2023-07-31T03:32:33;16.80;99.90
33067;DHT22;19428;49.024;8.366;2023-07-31T03:34:59;16.80;99.90
33067;DHT22;19428;49.024;8.366;2023-07-31T03:37:25;16.80;99.90
33067;DHT22;19428;49.024;8.366;2023-07-31T03:39:51;16.80;99.90
33067;DHT22;19428;49.024;8.366;2023-07-31T03:42:17;16.80;99.90
33067;DHT22;19428;49.024;8.366;2023-07-31T03:44:42;16.80;99.90
33067;DHT22;19428;49.024;8.366;2023-07-31T03:47:08;16.80;99.90
33067;DHT22;19428;49.024;8.366;2023-07-31T03:49:33;16.80;99.90
33067;DHT22;19428;49.024;8.366;2023-07-31T03:51:59;16.90;99.90
33067;DHT22;19428;49.024;8.366;2023-07-31T03:54:24;16.90;99.90
33067;DHT22;19428;49.024;8.366;2023-07-31T03:56:50;17.00;99.90
33067;DHT22;19428;49.024;8.366;2023-07-31T03:59:16;17.00;99.90
33067;DHT22;19428;49.024;8.366;2023-07-31T04:01:41;17.20;99.90
33067;DHT22;19428;49.024;8.366;2023-07-31T04:04:07;17.10;99.90
33067;DHT22;19428;49.024;8.366;2023-07-31T04:06:32;17.20;99.90
33067;DHT22;19428;49.024;8.366;2023-07-31T04:08:58;17.20;99.90
33067;DHT22;19428;49.024;8.366;2023-07-31T04:11:23;17.20;99.90
33067;DHT22;19428;49.024;8.366;2023-07-31T04:13:49;17.20;99.90
33067;DHT22;19428;49.024;8.366;2023-07-31T04:16:14;17.20;99.90
33067;DHT22;19428;49.024;8.366;2023-07-31T04:18:40;17.20;99.90
33067;DHT22;19428;49.024;8.366;2023-07-31T04:21:05;17.20;99.90
33067;DHT22;19428;49.024;8.366;2023-07-31T04:23:31;17.20;99.90
33067;DHT22;19428;49.024;8.366;2023-07-31T04:25:57;17.20;99.90
33067;DHT22;19428;49.024;8.366;2023-07-31T04:28:22;17.20;99.90
33067;DHT22;19428;49.024;8.366;2023-07-31T04:30:48;17.10;99.90
33067;DHT22;19428;49.024;8.366;2023-07-31T04:33:13;17.20;99.90
33067;DHT22;19428;49.024;8.366;2023-07-31T04:35:39;17.20;99.90
33067;DHT22;19428;49.024;8.366;2023-07-31T04:38:04;17.20;99.90
33067;DHT22;19428;49.024;8.366;2023-07-31T04:40:30;17.20;99.90
33067;DHT22;19428;49.024;8.366;2023-07-31T04:42:56;17.20;99.90
33067;DHT22;19428;49.024;8.366;2023-07-31T04:45:21;17.20;99.90
33067;DHT22;19428;49.024;8.366;2023-07-31T04:47:47;17.20;99.90
33067;DHT22;19428;49.024;8.366;2023-07-31T04:50:12;17.20;99.90
33067;DHT22;19428;49.024;8.366;2023-07-31T04:52:38;17.20;99.90
33067;DHT22;19428;49.024;8.366;2023-07-31T04:55:04;17.20;99.90
33067;DHT22;19428;49.024;8.366;2023-07-31T04:57:29;17.20;99.90
33067;DHT22;19428;49.024;8.366;2023-07-31T04:59:55;17.10;99.90
33067;DHT22;19428;49.024;8.366;2023-07-31T05:02:21;17.20;99.90
33067;DHT22;19428;49.024;8.366;2023-07-31T05:04:46;17.20;99.90
33067;DHT22;19428;49.024;8.366;2023-07-31T05:07:12;17.20;99.90
33067;DHT22;19428;49.024;8.366;2023-07-31T05:09:37;17.20;99.90
33067;DHT22;19428;49.024;8.366;2023-07-31T05:12:05;17.20;99.90
33067;DHT22;19428;49.024;8.366;2023-07-31T05:14:31;17.20;99.90
33067;DHT22;19428;49.024;8.366;2023-07-31T05:16:56;17.30;99.90
33067;DHT22;19428;49.024;8.366;2023-07-31T05:19:22;17.30;99.90
33067;DHT22;19428;49.024;8.366;2023-07-31T05:21:47;17.30;99.90
33067;DHT22;19428;49.024;8.366;2023-07-31T05:24:13;17.30;99.90
33067;DHT22;19428;49.024;8.366;2023-07-31T05:26:39;17.40;99.90
33067;DHT22;19428;49.024;8.366;2023-07-31T05:29:04;17.40;99.90
33067;DHT22;19428;49.024;8.366;2023-07-31T05:31:30;17.50;99.90
33067;DHT22;19428;49.024;8.366;2023-07-31T05:33:57;17.60;99.90
33067;DHT22;19428;49.024;8.366;2023-07-31T05:36:23;17.60;99.90
33067;DHT22;19428;49.024;8.366;2023-07-31T05:38:49;17.60;99.90
33067;DHT22;19428;49.024;8.366;2023-07-31T05:41:14;17.80;99.90
33067;DHT22;19428;49.024;8.366;2023-07-31T05:43:40;17.80;99.90
33067;DHT22;19428;49.024;8.366;2023-07-31T05:46:06;17.80;99.90
33067;DHT22;19428;49.024;8.366;2023-07-31T05:48:32;17.90;99.90
33067;DHT22;19428;49.024;8.366;2023-07-31T05:50:59;17.80;99.90
33067;DHT22;19428;49.024;8.366;2023-07-31T05:53:25;17.90;99.90
33067;DHT22;19428;49.024;8.366;2023-07-31T05:55:50;17.90;99.90
33067;DHT22;19428;49.024;8.366;2023-07-31T05:58:16;17.90;99.90
33067;DHT22;19428;49.024;8.366;2023-07-31T06:00:41;17.90;99.90
33067;DHT22;19428;49.024;8.366;2023-07-31T06:03:07;18.00;99.90
33067;DHT22;19428;49.024;8.366;2023-07-31T06:05:32;17.90;98.60
33067;DHT22;19428;49.024;8.366;2023-07-31T06:07:58;18.00;98.90
33067;DHT22;19428;49.024;8.366;2023-07-31T06:10:24;18.10;99.00
33067;DHT22;19428;49.024;8.366;2023-07-31T06:12:49;18.20;96.00
33067;DHT22;19428;49.024;8.366;2023-07-31T06:15:15;18.30;96.80
33067;DHT22;19428;49.024;8.366;2023-07-31T06:17:41;18.40;94.90
33067;DHT22;19428;49.024;8.366;2023-07-31T06:20:08;18.40;93.10
33067;DHT22;19428;49.024;8.366;2023-07-31T06:22:33;18.50;93.70
33067;DHT22;19428;49.024;8.366;2023-07-31T06:24:59;18.60;95.00
33067;DHT22;19428;49.024;8.366;2023-07-31T06:27:25;18.60;93.30
33067;DHT22;19428;49.024;8.366;2023-07-31T06:29:50;18.70;91.50
33067;DHT22;19428;49.024;8.366;2023-07-31T06:32:16;18.70;93.60
33067;DHT22;19428;49.024;8.366;2023-07-31T06:34:42;18.80;92.10
33067;DHT22;19428;49.024;8.366;2023-07-31T06:37:07;18.90;90.70
33067;DHT22;19428;49.024;8.366;2023-07-31T06:39:33;18.80;91.00
33067;DHT22;19428;49.024;8.366;2023-07-31T06:41:58;18.70;91.20
33067;DHT22;19428;49.024;8.366;2023-07-31T06:44:24;18.80;92.00
33067;DHT22;19428;49.024;8.366;2023-07-31T06:46:50;18.80;93.30
33067;DHT22;19428;49.024;8.366;2023-07-31T06:49:16;18.90;90.00
33067;DHT22;19428;49.024;8.366;2023-07-31T06:51:41;18.70;91.50
33067;DHT22;19428;49.024;8.366;2023-07-31T06:54:08;18.80;90.90
33067;DHT22;19428;49.024;8.366;2023-07-31T06:56:34;18.80;93.60
33067;DHT22;19428;49.024;8.366;2023-07-31T06:58:59;18.80;93.60
33067;DHT22;19428;49.024;8.366;2023-07-31T07:01:25;18.80;91.30
33067;DHT22;19428;49.024;8.366;2023-07-31T07:03:51;18.80;91.00
33067;DHT22;19428;49.024;8.366;2023-07-31T07:06:17;18.80;91.10
33067;DHT22;19428;49.024;8.366;2023-07-31T07:08:43;18.80;91.40
33067;DHT22;19428;49.024;8.366;2023-07-31T07:11:09;18.80;92.30
33067;DHT22;19428;49.024;8.366;2023-07-31T07:13:34;18.90;91.60
33067;DHT22;19428;49.024;8.366;2023-07-31T07:16:00;19.00;92.20
33067;DHT22;19428;49.024;8.366;2023-07-31T07:18:26;19.00;91.80
33067;DHT22;19428;49.024;8.366;2023-07-31T07:20:52;19.20;90.20
33067;DHT22;19428;49.024;8.366;2023-07-31T07:23:19;19.20;86.50
33067;DHT22;19428;49.024;8.366;2023-07-31T07:25:46;19.00;89.20
33067;DHT22;19428;49.024;8.366;2023-07-31T07:28:12;19.10;86.50
33067;DHT22;19428;49.024;8.366;2023-07-31T07:30:37;19.10;86.50
33067;DHT22;19428;49.024;8.366;2023-07-31T07:33:03;19.20;87.60
33067;DHT22;19428;49.024;8.366;2023-07-31T07:35:29;19.50;84.30
33067;DHT22;19428;49.024;8.366;2023-07-31T07:37:54;19.40;86.40
33067;DHT22;19428;49.024;8.366;2023-07-31T07:40:21;19.50;86.80
33067;DHT22;19428;49.024;8.366;2023-07-31T07:42:46;19.70;83.40
33067;DHT22;19428;49.024;8.366;2023-07-31T07:45:12;19.40;75.60
33067;DHT22;19428;49.024;8.366;2023-07-31T07:47:41;19.50;76.00
33067;DHT22;19428;49.024;8.366;2023-07-31T07:50:08;19.60;77.90
33067;DHT22;19428;49.024;8.366;2023-07-31T07:52:33;19.70;76.40
33067;DHT22;19428;49.024;8.366;2023-07-31T07:54:59;19.70;73.20
33067;DHT22;19428;49.024;8.366;2023-07-31T07:57:25;19.80;73.90
33067;DHT22;19428;49.024;8.366;2023-07-31T07:59:51;20.00;74.80
33067;DHT22;19428;49.024;8.366;2023-07-31T08:02:16;19.90;70.10
33067;DHT22;19428;49.024;8.366;2023-07-31T08:04:42;19.90;71.50
33067;DHT22;19428;49.024;8.366;2023-07-31T08:07:08;19.80;71.80
33067;DHT22;19428;49.024;8.366;2023-07-31T08:09:35;19.80;72.50
33067;DHT22;19428;49.024;8.366;2023-07-31T08:12:01;19.70;68.10
33067;DHT22;19428;49.024;8.366;2023-07-31T08:14:28;19.80;70.60
33067;DHT22;19428;49.024;8.366;2023-07-31T08:16:54;19.90;66.30
33067;DHT22;19428;49.024;8.366;2023-07-31T08:19:19;19.90;66.00
33067;DHT22;19428;49.024;8.366;2023-07-31T08:21:45;20.10;69.40
33067;DHT22;19428;49.024;8.366;2023-07-31T08:24:11;20.20;65.90
33067;DHT22;19428;49.024;8.366;2023-07-31T08:26:36;20.30;67.20
33067;DHT22;19428;49.024;8.366;2023-07-31T08:29:03;20.30;65.40
33067;DHT22;19428;49.024;8.366;2023-07-31T08:31:29;20.30;65.60
33067;DHT22;19428;49.024;8.366;2023-07-31T08:33:55;20.40;65.20
33067;DHT22;19428;49.024;8.366;2023-07-31T08:36:21;20.40;65.70
33067;DHT22;19428;49.024;8.366;2023-07-31T08:38:46;20.70;64.20
33067;DHT22;19428;49.024;8.366;2023-07-31T08:41:12;20.50;62.50
33067;DHT22;19428;49.024;8.366;2023-07-31T08:43:39;20.40;64.90
33067;DHT22;19428;49.024;8.366;2023-07-31T08:46:04;20.50;61.00
33067;DHT22;19428;49.024;8.366;2023-07-31T08:48:31;20.70;66.30
33067;DHT22;19428;49.024;8.366;2023-07-31T08:50:57;21.00;58.20
33067;DHT22;19428;49.024;8.366;2023-07-31T08:53:23;21.00;55.70
33067;DHT22;19428;49.024;8.366;2023-07-31T08:55:49;21.00;55.10
33067;DHT22;19428;49.024;8.366;2023-07-31T08:58:15;21.00;54.90
33067;DHT22;19428;49.024;8.366;2023-07-31T09:00:43;20.90;55.10
33067;DHT22;19428;49.024;8.366;2023-07-31T09:03:17;21.10;52.60
33067;DHT22;19428;49.024;8.366;2023-07-31T09:05:45;21.20;48.20
33067;DHT22;19428;49.024;8.366;2023-07-31T09:08:13;21.10;50.20
33067;DHT22;19428;49.024;8.366;2023-07-31T09:10:43;21.20;52.30
33067;DHT22;19428;49.024;8.366;2023-07-31T09:13:11;21.40;47.70
33067;DHT22;19428;49.024;8.366;2023-07-31T09:15:37;21.50;46.80
33067;DHT22;19428;49.024;8.366;2023-07-31T09:18:04;21.70;49.00
33067;DHT22;19428;49.024;8.366;2023-07-31T09:20:30;22.00;47.90
33067;DHT22;19428;49.024;8.366;2023-07-31T09:23:09;21.60;40.90
33067;DHT22;19428;49.024;8.366;2023-07-31T09:25:35;21.80;43.60
33067;DHT22;19428;49.024;8.366;2023-07-31T09:28:03;21.90;45.50
33067;DHT22;19428;49.024;8.366;2023-07-31T09:30:28;22.20;40.90
33067;DHT22;19428;49.024;8.366;2023-07-31T09:33:02;22.00;40.90
33067;DHT22;19428;49.024;8.366;2023-07-31T09:35:31;22.00;40.90
33067;DHT22;19428;49.024;8.366;2023-07-31T09:38:10;21.90;41.20
33067;DHT22;19428;49.024;8.366;2023-07-31T09:40:38;21.90;43.50
33067;DHT22;19428;49.024;8.366;2023-07-31T09:43:12;21.80;39.30
33067;DHT22;19428;49.024;8.366;2023-07-31T09:45:42;21.80;39.40
33067;DHT22;19428;49.024;8.366;2023-07-31T09:48:16;21.90;37.60
33067;DHT22;19428;49.024;8.366;2023-07-31T09:50:44;22.20;35.10
33067;DHT22;19428;49.024;8.366;2023-07-31T09:53:10;22.20;36.40
33067;DHT22;19428;49.024;8.366;2023-07-31T09:55:37;22.10;39.20
33067;DHT22;19428;49.024;8.366;2023-07-31T09:58:08;22.00;34.80
33067;DHT22;19428;49.024;8.366;2023-07-31T10:00:35;22.00;36.60
33067;DHT22;19428;49.024;8.366;2023-07-31T10:03:02;21.80;34.80
33067;DHT22;19428;49.024;8.366;2023-07-31T10:05:34;22.10;36.00
33067;DHT22;19428;49.024;8.366;2023-07-31T10:07:59;22.00;35.00
33067;DHT22;19428;49.024;8.366;2023-07-31T10:10:27;22.20;36.20
33067;DHT22;19428;49.024;8.366;2023-07-31T10:12:54;22.40;36.50
33067;DHT22;19428;49.024;8.366;2023-07-31T10:15:21;22.30;39.10
33067;DHT22;19428;49.024;8.366;2023-07-31T10:17:48;22.20;36.50
33067;DHT22;19428;49.024;8.366;2023-07-31T10:20:15;22.30;34.70
33067;DHT22;19428;49.024;8.366;2023-07-31T10:22:42;21.90;35.50
33067;DHT22;19428;49.024;8.366;2023-07-31T10:25:09;22.00;34.00
33067;DHT22;19428;49.024;8.366;2023-07-31T10:27:44;22.10;36.80
33067;DHT22;19428;49.024;8.366;2023-07-31T10:30:15;22.20;34.70
33067;DHT22;19428;49.024;8.366;2023-07-31T10:32:43;22.30;36.70
33067;DHT22;19428;49.024;8.366;2023-07-31T10:35:10;22.20;34.90
33067;DHT22;19428;49.024;8.366;2023-07-31T10:37:41;22.10;34.60
33067;DHT22;19428;49.024;8.366;2023-07-31T10:40:16;22.30;35.50
33067;DHT22;19428;49.024;8.366;2023-07-31T10:42:50;22.30;35.50
33067;DHT22;19428;49.024;8.366;2023-07-31T10:45:26;22.30;36.90
33067;DHT22;19428;49.024;8.366;2023-07-31T10:48:00;22.10;35.50
33067;DHT22;19428;49.024;8.366;2023-07-31T10:50:27;22.50;38.40
33067;DHT22;19428;49.024;8.366;2023-07-31T10:52:55;22.40;35.60
33067;DHT22;19428;49.024;8.366;2023-07-31T10:57:53;22.20;35.20
33067;DHT22;19428;49.024;8.366;2023-07-31T11:00:29;22.20;35.80
33067;DHT22;19428;49.024;8.366;2023-07-31T11:08:32;22.70;35.50
33067;DHT22;19428;49.024;8.366;2023-07-31T11:13:26;22.80;32.90
33067;DHT22;19428;49.024;8.366;2023-07-31T11:15:52;23.00;33.80
33067;DHT22;19428;49.024;8.366;2023-07-31T11:18:18;23.30;35.30
33067;DHT22;19428;49.024;8.366;2023-07-31T11:20:44;23.10;33.00
33067;DHT22;19428;49.024;8.366;2023-07-31T11:23:10;22.90;33.40
33067;DHT22;19428;49.024;8.366;2023-07-31T11:25:39;22.70;33.40
33067;DHT22;19428;49.024;8.366;2023-07-31T11:28:15;22.70;34.30
33067;DHT22;19428;49.024;8.366;2023-07-31T11:30:42;22.70;33.50
33067;DHT22;19428;49.024;8.366;2023-07-31T11:33:10;22.90;35.10
33067;DHT22;19428;49.024;8.366;2023-07-31T11:35:54;22.70;33.90
33067;DHT22;19428;49.024;8.366;2023-07-31T11:38:30;22.90;36.60
33067;DHT22;19428;49.024;8.366;2023-07-31T11:41:05;23.10;34.30
33067;DHT22;19428;49.024;8.366;2023-07-31T11:43:31;22.70;36.00
33067;DHT22;19428;49.024;8.366;2023-07-31T11:46:01;22.70;33.70
33067;DHT22;19428;49.024;8.366;2023-07-31T11:48:34;22.60;36.60
33067;DHT22;19428;49.024;8.366;2023-07-31T11:51:03;23.00;34.40
33067;DHT22;19428;49.024;8.366;2023-07-31T11:53:38;22.90;32.60
33067;DHT22;19428;49.024;8.366;2023-07-31T11:56:07;22.70;33.90
33067;DHT22;19428;49.024;8.366;2023-07-31T11:58:34;22.80;33.60
33067;DHT22;19428;49.024;8.366;2023-07-31T12:01:01;22.90;36.50
33067;DHT22;19428;49.024;8.366;2023-07-31T12:03:27;23.60;31.40
33067;DHT22;19428;49.024;8.366;2023-07-31T12:05:53;24.10;29.00
33067;DHT22;19428;49.024;8.366;2023-07-31T12:08:21;23.70;28.60
33067;DHT22;19428;49.024;8.366;2023-07-31T12:10:50;23.90;31.90
33067;DHT22;19428;49.024;8.366;2023-07-31T12:13:26;24.10;29.70
33067;DHT22;19428;49.024;8.366;2023-07-31T12:15:57;23.80;33.20
33067;DHT22;19428;49.024;8.366;2023-07-31T12:18:24;23.40;31.80
33067;DHT22;19428;49.024;8.366;2023-07-31T12:21:01;23.50;29.20
33067;DHT22;19428;49.024;8.366;2023-07-31T12:23:28;23.40;31.40
33067;DHT22;19428;49.024;8.366;2023-07-31T12:26:09;23.90;29.00
33067;DHT22;19428;49.024;8.366;2023-07-31T12:28:42;23.70;29.30
33067;DHT22;19428;49.024;8.366;2023-07-31T12:31:20;23.40;29.70
33067;DHT22;19428;49.024;8.366;2023-07-31T12:33:47;23.70;29.40
33067;DHT22;19428;49.024;8.366;2023-07-31T12:36:14;23.80;28.70
33067;DHT22;19428;49.024;8.366;2023-07-31T12:38:41;23.80;29.90
33067;DHT22;19428;49.024;8.366;2023-07-31T12:41:07;23.70;30.20
33067;DHT22;19428;49.024;8.366;2023-07-31T12:43:36;23.80;30.00
33067;DHT22;19428;49.024;8.366;2023-07-31T12:46:02;23.50;30.40
33067;DHT22;19428;49.024;8.366;2023-07-31T12:48:31;23.40;29.70
33067;DHT22;19428;49.024;8.366;2023-07-31T12:50:57;23.20;32.40
33067;DHT22;19428;49.024;8.366;2023-07-31T12:53:22;23.10;32.80
33067;DHT22;19428;49.024;8.366;2023-07-31T12:55:48;23.30;34.80
33067;DHT22;19428;49.024;8.366;2023-07-31T12:58:14;23.50;31.70
33067;DHT22;19428;49.024;8.366;2023-07-31T13:00:39;23.50;30.40
33067;DHT22;19428;49.024;8.366;2023-07-31T13:03:05;23.50;32.90
33067;DHT22;19428;49.024;8.366;2023-07-31T13:05:31;23.70;33.30
33067;DHT22;19428;49.024;8.366;2023-07-31T13:07:57;23.60;31.80
33067;DHT22;19428;49.024;8.366;2023-07-31T13:10:23;23.50;31.00
33067;DHT22;19428;49.024;8.366;2023-07-31T13:12:49;23.50;35.00
33067;DHT22;19428;49.024;8.366;2023-07-31T13:15:14;23.40;35.30
33067;DHT22;19428;49.024;8.366;2023-07-31T13:17:40;23.60;33.70
33067;DHT22;19428;49.024;8.366;2023-07-31T13:20:06;23.70;35.30
33067;DHT22;19428;49.024;8.366;2023-07-31T13:22:32;23.80;33.20
33067;DHT22;19428;49.024;8.366;2023-07-31T13:24:58;23.50;32.00
33067;DHT22;19428;49.024;8.366;2023-07-31T13:27:23;23.60;31.70
33067;DHT22;19428;49.024;8.366;2023-07-31T13:29:50;23.60;33.20
33067;DHT22;19428;49.024;8.366;2023-07-31T13:32:16;23.60;32.40
33067;DHT22;19428;49.024;8.366;2023-07-31T13:34:42;23.40;36.10
33067;DHT22;19428;49.024;8.366;2023-07-31T13:37:08;23.50;35.80
33067;DHT22;19428;49.024;8.366;2023-07-31T13:39:34;23.40;37.80
33067;DHT22;19428;49.024;8.366;2023-07-31T13:42:00;23.50;36.20
33067;DHT22;19428;49.024;8.366;2023-07-31T13:44:26;23.20;35.40
33067;DHT22;19428;49.024;8.366;2023-07-31T13:46:52;23.20;35.50
33067;DHT22;19428;49.024;8.366;2023-07-31T13:49:17;23.40;35.20
33067;DHT22;19428;49.024;8.366;2023-07-31T13:51:43;23.50;35.50
33067;DHT22;19428;49.024;8.366;2023-07-31T13:54:09;23.40;35.50
33067;DHT22;19428;49.024;8.366;2023-07-31T13:56:37;23.50;33.30
33067;DHT22;19428;49.024;8.366;2023-07-31T13:59:02;23.40;35.40
33067;DHT22;19428;49.024;8.366;2023-07-31T14:01:28;23.60;34.40
33067;DHT22;19428;49.024;8.366;2023-07-31T14:03:53;23.40;32.80
33067;DHT22;19428;49.024;8.366;2023-07-31T14:06:19;23.40;36.90
33067;DHT22;19428;49.024;8.366;2023-07-31T14:09:03;23.40;33.70
33067;DHT22;19428;49.024;8.366;2023-07-31T14:11:42;23.40;36.20
33067;DHT22;19428;49.024;8.366;2023-07-31T14:14:11;23.40;36.10
33067;DHT22;19428;49.024;8.366;2023-07-31T14:16:37;23.30;36.90
33067;DHT22;19428;49.024;8.366;2023-07-31T14:19:03;23.40;38.10
33067;DHT22;19428;49.024;8.366;2023-07-31T14:21:29;23.20;35.30
33067;DHT22;19428;49.024;8.366;2023-07-31T14:23:54;23.20;34.60
33067;DHT22;19428;49.024;8.366;2023-07-31T14:26:20;23.10;36.10
33067;DHT22;19428;49.024;8.366;2023-07-31T14:28:45;23.10;37.40
33067;DHT22;19428;49.024;8.366;2023-07-31T14:31:11;23.10;38.80
33067;DHT22;19428;49.024;8.366;2023-07-31T14:33:36;23.20;39.50
33067;DHT22;19428;49.024;8.366;2023-07-31T14:36:02;23.10;37.20
33067;DHT22;19428;49.024;8.366;2023-07-31T14:38:28;23.20;37.80
33067;DHT22;19428;49.024;8.366;2023-07-31T14:40:55;23.20;37.10
33067;DHT22;19428;49.024;8.366;2023-07-31T14:43:21;23.40;38.00
33067;DHT22;19428;49.024;8.366;2023-07-31T14:45:46;23.80;39.00
33067;DHT22;19428;49.024;8.366;2023-07-31T14:48:12;23.80;37.50
33067;DHT22;19428;49.024;8.366;2023-07-31T14:50:38;23.80;38.20
33067;DHT22;19428;49.024;8.366;2023-07-31T14:53:04;23.70;37.80
33067;DHT22;19428;49.024;8.366;2023-07-31T14:55:29;23.50;40.20
33067;DHT22;19428;49.024;8.366;2023-07-31T14:57:55;23.50;37.80
33067;DHT22;19428;49.024;8.366;2023-07-31T15:00:20;23.60;37.80
33067;DHT22;19428;49.024;8.366;2023-07-31T15:02:46;23.60;38.00
33067;DHT22;19428;49.024;8.366;2023-07-31T15:05:12;23.50;39.10
33067;DHT22;19428;49.024;8.366;2023-07-31T15:07:37;23.50;40.40
33067;DHT22;19428;49.024;8.366;2023-07-31T15:10:03;23.90;39.70
33067;DHT22;19428;49.024;8.366;2023-07-31T15:12:29;24.00;39.70
33067;DHT22;19428;49.024;8.366;2023-07-31T15:14:54;23.90;38.00
33067;DHT22;19428;49.024;8.366;2023-07-31T15:17:20;24.20;35.90
33067;DHT22;19428;49.024;8.366;2023-07-31T15:19:46;24.10;31.70
33067;DHT22;19428;49.024;8.366;2023-07-31T15:22:11;24.00;33.40
33067;DHT22;19428;49.024;8.366;2023-07-31T15:24:37;23.90;32.60
33067;DHT22;19428;49.024;8.366;2023-07-31T15:27:03;24.10;33.40
33067;DHT22;19428;49.024;8.366;2023-07-31T15:29:29;23.90;32.80
33067;DHT22;19428;49.024;8.366;2023-07-31T15:31:55;24.20;35.70
33067;DHT22;19428;49.024;8.366;2023-07-31T15:34:21;23.90;36.20
33067;DHT22;19428;49.024;8.366;2023-07-31T15:36:47;23.80;35.20
33067;DHT22;19428;49.024;8.366;2023-07-31T15:39:13;23.70;37.70
33067;DHT22;19428;49.024;8.366;2023-07-31T15:41:39;23.50;36.50
33067;DHT22;19428;49.024;8.366;2023-07-31T15:44:05;23.50;38.10